createdAt,value
2018-07-03T00:00:23.899Z,69.98
2018-07-03T00:02:53.780Z,69.96
2018-07-03T00:05:23.603Z,69.13
2018-07-03T00:07:53.601Z,69.49
2018-07-03T00:10:23.417Z,69.73
2018-07-03T00:12:53.442Z,69.65
2018-07-03T00:15:23.355Z,69.94
2018-07-03T00:17:53.260Z,69.66
2018-07-03T00:20:23.106Z,70.51
2018-07-03T00:22:53.032Z,69.91
2018-07-03T00:25:22.807Z,70.10
2018-07-03T00:27:52.643Z,70.14
2018-07-03T00:30:22.428Z,70.75
2018-07-03T00:32:52.289Z,69.95
2018-07-03T00:35:22.097Z,70.69
2018-07-03T00:37:52.016Z,70.82
2018-07-03T00:40:21.870Z,70.02
2018-07-03T00:42:51.749Z,70.72
2018-07-03T00:45:21.719Z,70.24
2018-07-03T00:47:51.616Z,70.42
2018-07-03T00:50:21.409Z,70.60
2018-07-03T00:52:51.258Z,70.17
2018-07-03T00:55:21.087Z,70.95
2018-07-03T00:57:50.953Z,70.02
2018-07-03T01:00:33.708Z,70.38
2018-07-03T01:03:04.455Z,69.84
2018-07-03T01:05:34.656Z,70.06
2018-07-03T01:08:04.499Z,69.57
2018-07-03T01:10:34.369Z,69.62
2018-07-03T01:13:04.288Z,70.47
2018-07-03T01:15:34.189Z,69.85
2018-07-03T01:18:04.151Z,70.06
2018-07-03T01:20:33.947Z,70.24
2018-07-03T01:23:03.732Z,70.15
2018-07-03T01:25:33.599Z,69.67
2018-07-03T01:28:03.455Z,69.76
2018-07-03T01:30:33.325Z,70.42
2018-07-03T01:33:03.139Z,69.74
2018-07-03T01:35:33.076Z,70.73
2018-07-03T01:38:02.910Z,70.37
2018-07-03T01:40:32.755Z,70.06
2018-07-03T01:43:02.630Z,70.82
2018-07-03T01:45:32.460Z,70.15
2018-07-03T01:48:02.320Z,70.75
2018-07-03T01:50:32.151Z,70.49
2018-07-03T01:53:01.963Z,70.84
2018-07-03T01:55:31.816Z,70.10
2018-07-03T01:58:01.664Z,70.31
2018-07-03T02:00:31.459Z,70.50
2018-07-03T02:03:01.315Z,70.79
2018-07-03T02:05:31.111Z,70.67
2018-07-03T02:08:00.972Z,71.29
2018-07-03T02:10:30.883Z,70.73
2018-07-03T02:13:00.707Z,71.58
2018-07-03T02:15:30.540Z,71.12
2018-07-03T02:18:00.374Z,71.34
2018-07-03T02:20:30.247Z,71.30
2018-07-03T02:23:00.044Z,70.79
2018-07-03T02:25:29.837Z,70.63
2018-07-03T02:27:59.627Z,71.03
2018-07-03T02:30:29.512Z,71.21
2018-07-03T02:32:59.356Z,70.43
2018-07-03T02:35:29.179Z,70.10
2018-07-03T02:37:58.967Z,70.63
2018-07-03T02:40:28.835Z,70.55
2018-07-03T02:42:58.691Z,70.43
2018-07-03T02:45:28.563Z,69.93
2018-07-03T02:47:58.363Z,69.97
2018-07-03T02:50:28.243Z,70.83
2018-07-03T02:52:58.128Z,70.23
2018-07-03T02:55:27.976Z,70.05
2018-07-03T02:57:57.816Z,70.64
2018-07-03T03:00:27.692Z,71.53
2018-07-03T03:02:57.568Z,71.34
2018-07-03T03:05:27.402Z,71.01
2018-07-03T03:07:57.241Z,71.07
2018-07-03T03:10:27.076Z,71.22
2018-07-03T03:12:57.031Z,75.21
2018-07-03T03:15:26.956Z,74.06
2018-07-03T03:17:56.880Z,72.81
2018-07-03T03:20:26.743Z,72.82
2018-07-03T03:22:56.691Z,71.98
2018-07-03T03:25:26.583Z,72.05
2018-07-03T03:27:56.442Z,72.97
2018-07-03T03:30:26.236Z,72.17
2018-07-03T03:32:56.457Z,71.14
2018-07-03T03:35:26.356Z,70.36
2018-07-03T03:37:56.221Z,69.39
2018-07-03T03:40:26.131Z,69.35
2018-07-03T03:42:55.927Z,69.56
2018-07-03T03:45:26.039Z,69.54
2018-07-03T03:47:55.834Z,68.21
2018-07-03T03:50:25.629Z,68.56
2018-07-03T03:52:55.505Z,68.47
2018-07-03T03:55:25.386Z,68.32
2018-07-03T03:57:55.195Z,68.64
2018-07-03T04:00:25.128Z,68.80
2018-07-03T04:02:55.016Z,67.36
2018-07-03T04:05:24.905Z,67.71
2018-07-03T04:07:54.774Z,67.63
2018-07-03T04:10:24.699Z,67.79
2018-07-03T04:12:54.471Z,67.55
2018-07-03T04:15:24.270Z,67.23
2018-07-03T04:17:54.053Z,66.70
2018-07-03T04:20:23.843Z,67.08
2018-07-03T04:22:53.627Z,67.01
2018-07-03T04:25:23.587Z,67.18
2018-07-03T04:27:53.383Z,66.60
2018-07-03T04:30:23.228Z,66.12
2018-07-03T04:32:53.075Z,66.94
2018-07-03T04:35:22.875Z,67.39
2018-07-03T04:37:52.745Z,66.86
2018-07-03T04:40:22.538Z,67.03
2018-07-03T04:42:52.371Z,67.01
2018-07-03T04:45:22.212Z,67.04
2018-07-03T04:47:52.187Z,67.21
2018-07-03T04:50:21.987Z,66.70
2018-07-03T04:52:51.848Z,67.58
2018-07-03T04:55:21.927Z,66.36
2018-07-03T04:57:51.713Z,65.91
2018-07-03T05:00:21.618Z,66.97
2018-07-03T05:02:51.477Z,66.80
2018-07-03T05:05:21.315Z,66.71
2018-07-03T05:07:51.267Z,65.61
2018-07-03T05:10:21.333Z,64.79
2018-07-03T05:12:51.164Z,66.19
2018-07-03T05:15:21.503Z,67.21
2018-07-03T05:17:51.367Z,67.84
2018-07-03T05:20:21.251Z,67.90
2018-07-03T05:22:51.067Z,68.70
2018-07-03T05:25:21.007Z,69.41
2018-07-03T05:27:50.786Z,68.36
2018-07-03T05:30:20.607Z,68.35
2018-07-03T05:32:50.468Z,68.22
2018-07-03T05:35:20.311Z,68.70
2018-07-03T05:37:50.246Z,67.50
2018-07-03T05:40:20.093Z,68.34
2018-07-03T05:42:49.936Z,68.33
2018-07-03T05:45:19.717Z,67.24
2018-07-03T05:47:49.608Z,66.50
2018-07-03T05:50:19.433Z,66.46
2018-07-03T05:52:49.257Z,65.11
2018-07-03T05:55:19.061Z,64.10
2018-07-03T05:57:48.899Z,64.56
2018-07-03T06:00:18.731Z,65.46
2018-07-03T06:02:48.677Z,65.02
2018-07-03T06:05:18.550Z,64.59
2018-07-03T06:07:48.370Z,63.75
2018-07-03T06:10:18.210Z,62.87
2018-07-03T06:12:48.023Z,63.71
2018-07-03T06:15:17.895Z,64.01
2018-07-03T06:17:47.691Z,63.59
2018-07-03T06:20:17.580Z,63.88
2018-07-03T06:22:47.598Z,62.71
2018-07-03T06:25:17.435Z,62.42
2018-07-03T06:27:47.271Z,62.34
2018-07-03T06:30:17.170Z,63.08
2018-07-03T06:32:46.979Z,64.18
2018-07-03T06:35:16.803Z,63.23
2018-07-03T06:37:46.691Z,63.33
2018-07-03T06:40:16.531Z,62.74
2018-07-03T06:42:46.374Z,62.92
2018-07-03T06:45:16.388Z,62.41
2018-07-03T06:47:47.022Z,62.87
2018-07-03T06:50:16.993Z,62.07
2018-07-03T06:52:46.826Z,62.46
2018-07-03T06:55:16.723Z,62.87
2018-07-03T06:57:46.578Z,62.49
2018-07-03T07:00:16.590Z,63.65
2018-07-03T07:02:46.665Z,62.94
2018-07-03T07:05:16.591Z,62.70
2018-07-03T07:07:46.480Z,63.33
2018-07-03T07:10:16.395Z,63.12
2018-07-03T07:12:46.325Z,62.72
2018-07-03T07:15:16.475Z,63.69
2018-07-03T07:17:46.320Z,62.89
2018-07-03T07:20:17.019Z,63.09
2018-07-03T07:22:46.946Z,61.73
2018-07-03T07:25:16.996Z,63.08
2018-07-03T07:27:46.751Z,62.07
2018-07-03T07:30:19.643Z,62.60
2018-07-03T07:32:49.991Z,62.94
2018-07-03T07:35:19.912Z,62.77
2018-07-03T07:37:49.703Z,62.53
2018-07-03T07:40:19.529Z,62.08
2018-07-03T07:42:49.344Z,61.17
2018-07-03T07:45:19.216Z,60.12
2018-07-03T07:47:49.234Z,60.98
2018-07-03T07:50:19.150Z,60.53
2018-07-03T07:52:48.990Z,61.04
2018-07-03T07:55:18.833Z,58.92
2018-07-03T07:57:48.761Z,59.99
2018-07-03T08:00:18.586Z,60.15
2018-07-03T08:02:48.407Z,59.02
2018-07-03T08:05:18.267Z,58.89
2018-07-03T08:07:48.096Z,60.08
2018-07-03T08:10:17.951Z,60.72
2018-07-03T08:12:47.767Z,58.60
2018-07-03T08:15:17.604Z,59.59
2018-07-03T08:17:47.521Z,58.79
2018-07-03T08:20:17.411Z,58.77
2018-07-03T08:22:47.288Z,58.66
2018-07-03T08:25:17.074Z,60.05
2018-07-03T08:27:46.906Z,60.48
2018-07-03T08:30:16.698Z,59.12
2018-07-03T08:32:46.483Z,58.51
2018-07-03T08:35:16.490Z,59.38
2018-07-03T08:37:46.326Z,59.87
2018-07-03T08:40:16.135Z,58.98
2018-07-03T08:42:46.023Z,59.15
2018-07-03T08:45:15.871Z,57.50
2018-07-03T08:47:45.699Z,57.40
2018-07-03T08:50:15.535Z,57.73
2018-07-03T08:52:45.322Z,58.56
2018-07-03T08:55:15.115Z,57.53
2018-07-03T08:57:44.935Z,58.96
2018-07-03T09:00:14.852Z,58.18
2018-07-03T09:02:44.780Z,58.96
2018-07-03T09:05:14.667Z,59.70
2018-07-03T09:07:44.463Z,58.22
2018-07-03T09:10:14.295Z,57.51
2018-07-03T09:12:44.103Z,57.87
2018-07-03T09:15:13.911Z,57.33
2018-07-03T09:17:43.744Z,56.89
2018-07-03T09:20:13.616Z,56.54
2018-07-03T09:22:43.528Z,58.15
2018-07-03T09:25:13.408Z,57.19
2018-07-03T09:27:43.225Z,56.23
2018-07-03T09:30:13.040Z,56.38
2018-07-03T09:32:42.936Z,56.33
2018-07-03T09:35:12.807Z,55.47
2018-07-03T09:37:42.727Z,54.14
2018-07-03T09:40:12.679Z,53.95
2018-07-03T09:42:42.475Z,51.97
2018-07-03T09:45:12.240Z,52.02
2018-07-03T09:47:42.059Z,53.49
2018-07-03T09:50:11.918Z,53.25
2018-07-03T09:52:41.703Z,53.27
2018-07-03T09:55:11.593Z,51.85
2018-07-03T09:57:41.503Z,52.37
2018-07-03T10:00:11.296Z,51.71
2018-07-03T10:02:41.197Z,51.39
2018-07-03T10:05:10.975Z,50.63
2018-07-03T10:07:40.783Z,51.06
2018-07-03T10:10:10.699Z,49.99
2018-07-03T10:12:40.510Z,49.23
2018-07-03T10:15:10.268Z,49.92
2018-07-03T10:17:40.176Z,50.15
2018-07-03T10:20:10.029Z,48.78
2018-07-03T10:22:39.895Z,50.21
2018-07-03T10:25:09.864Z,48.01
2018-07-03T10:27:39.664Z,48.78
2018-07-03T10:30:09.575Z,48.80
2018-07-03T10:32:39.544Z,49.98
2018-07-03T10:35:09.479Z,49.22
2018-07-03T10:37:39.328Z,50.64
2018-07-03T10:40:09.213Z,50.46
2018-07-03T10:42:39.112Z,50.09
2018-07-03T10:45:08.904Z,49.67
2018-07-03T10:47:38.785Z,49.92
2018-07-03T10:50:08.631Z,49.17
2018-07-03T10:52:38.439Z,50.35
2018-07-03T10:55:08.255Z,50.73
2018-07-03T10:57:38.036Z,50.28
2018-07-03T11:00:08.303Z,50.11
2018-07-03T11:02:38.748Z,49.29
2018-07-03T11:05:08.719Z,49.47
2018-07-03T11:07:38.579Z,50.38
2018-07-03T11:10:08.463Z,51.55
2018-07-03T11:12:38.903Z,50.88
2018-07-03T11:15:08.699Z,50.85
2018-07-03T11:17:38.703Z,49.92
2018-07-03T11:20:08.901Z,51.35
2018-07-03T11:22:38.820Z,51.47
2018-07-03T11:25:08.800Z,51.15
2018-07-03T11:27:38.615Z,49.90
2018-07-03T11:30:08.560Z,51.05
2018-07-03T11:32:38.778Z,49.91
2018-07-03T11:35:08.689Z,49.54
2018-07-03T11:37:39.152Z,49.00
2018-07-03T11:40:08.987Z,50.18
2018-07-03T11:42:38.787Z,50.55
2018-07-03T11:45:08.690Z,48.94
2018-07-03T11:47:38.507Z,49.05
2018-07-03T11:50:08.597Z,49.44
2018-07-03T11:52:38.947Z,49.65
2018-07-03T11:55:09.019Z,49.69
2018-07-03T11:57:38.931Z,48.13
2018-07-03T12:00:08.867Z,49.10
2018-07-03T12:02:38.780Z,49.36
2018-07-03T12:05:08.591Z,47.61
2018-07-03T12:07:38.615Z,48.92
2018-07-03T12:10:08.466Z,48.27
2018-07-03T12:12:38.373Z,49.05
2018-07-03T12:15:08.289Z,49.23
2018-07-03T12:17:38.099Z,49.03
2018-07-03T12:20:08.076Z,48.23
2018-07-03T12:22:37.952Z,49.04
2018-07-03T12:25:07.891Z,47.50
2018-07-03T12:27:37.771Z,47.80
2018-07-03T12:30:09.977Z,48.16
2018-07-03T12:32:40.016Z,48.98
2018-07-03T12:35:10.088Z,47.82
2018-07-03T12:37:40.554Z,47.57
2018-07-03T12:40:10.455Z,46.92
2018-07-03T12:42:40.316Z,47.82
2018-07-03T12:45:10.260Z,47.99
2018-07-03T12:47:40.040Z,47.23
2018-07-03T12:50:09.873Z,46.80
2018-07-03T12:52:39.695Z,47.54
2018-07-03T12:55:09.518Z,47.10
2018-07-03T12:57:39.904Z,47.30
2018-07-03T13:00:09.888Z,47.27
2018-07-03T13:02:39.683Z,47.17
2018-07-03T13:05:09.778Z,47.85
2018-07-03T13:07:39.624Z,46.46
2018-07-03T13:10:09.528Z,46.45
2018-07-03T13:12:40.207Z,47.46
2018-07-03T13:15:10.115Z,46.10
2018-07-03T13:17:40.080Z,45.85
2018-07-03T13:20:09.956Z,46.58
2018-07-03T13:22:39.946Z,46.85
2018-07-03T13:25:11.735Z,46.98
2018-07-03T13:27:41.591Z,45.60
2018-07-03T13:30:11.776Z,45.84
2018-07-03T13:32:41.588Z,45.67
2018-07-03T13:35:11.704Z,46.84
2018-07-03T13:37:41.563Z,46.62
2018-07-03T13:40:11.819Z,45.47
2018-07-03T13:42:41.651Z,46.27
2018-07-03T13:45:11.600Z,45.36
2018-07-03T13:47:41.423Z,44.46
2018-07-03T13:50:11.284Z,45.38
2018-07-03T13:52:41.131Z,44.55
2018-07-03T13:55:11.119Z,44.87
2018-07-03T13:57:40.951Z,44.91
2018-07-03T14:00:12.691Z,45.38
2018-07-03T14:02:42.728Z,45.10
2018-07-03T14:05:13.659Z,44.78
2018-07-03T14:07:43.527Z,43.76
2018-07-03T14:10:13.335Z,45.59
2018-07-03T14:12:43.203Z,44.50
2018-07-03T14:15:13.104Z,45.12
2018-07-03T14:17:43.112Z,43.98
2018-07-03T14:20:12.970Z,44.58
2018-07-03T14:22:42.996Z,43.72
2018-07-03T14:25:13.317Z,43.87
2018-07-03T14:27:43.195Z,44.85
2018-07-03T14:30:13.139Z,44.21
2018-07-03T14:32:43.011Z,44.75
2018-07-03T14:35:12.870Z,44.15
2018-07-03T14:37:42.787Z,44.59
2018-07-03T14:40:12.620Z,44.14
2018-07-03T14:42:42.481Z,44.11
2018-07-03T14:45:12.267Z,44.57
2018-07-03T14:47:42.082Z,44.00
2018-07-03T14:50:12.247Z,44.05
2018-07-03T14:52:42.100Z,44.46
2018-07-03T14:55:11.960Z,44.89
2018-07-03T14:57:41.833Z,42.77
2018-07-03T15:00:11.784Z,43.39
2018-07-03T15:02:41.820Z,44.36
2018-07-03T15:05:11.754Z,43.35
2018-07-03T15:07:41.665Z,43.90
2018-07-03T15:10:11.475Z,43.88
2018-07-03T15:12:41.407Z,43.63
2018-07-03T15:15:11.348Z,43.08
2018-07-03T15:17:41.150Z,43.60
2018-07-03T15:20:11.115Z,43.97
2018-07-03T15:22:41.074Z,44.04
2018-07-03T15:25:10.890Z,44.76
2018-07-03T15:27:40.776Z,44.31
2018-07-03T15:30:10.755Z,42.57
2018-07-03T15:32:40.595Z,43.00
2018-07-03T15:35:10.480Z,43.97
2018-07-03T15:37:40.373Z,47.97
2018-07-03T15:40:10.224Z,48.01
2018-07-03T15:42:40.120Z,51.61
2018-07-03T15:45:11.644Z,50.70
2018-07-03T15:47:41.582Z,50.69
2018-07-03T15:50:12.408Z,50.74
2018-07-03T15:52:42.364Z,53.48
2018-07-03T15:55:12.348Z,54.04
2018-07-03T15:57:42.195Z,53.72
2018-07-03T16:00:14.960Z,54.03
2018-07-03T16:02:55.649Z,54.20
2018-07-03T16:05:36.943Z,54.80
2018-07-03T16:08:49.407Z,54.32
2018-07-03T16:11:19.255Z,54.67
2018-07-03T16:13:49.176Z,55.52
2018-07-03T16:16:19.066Z,55.48
2018-07-03T16:18:48.915Z,55.48
2018-07-03T16:21:18.723Z,54.53
2018-07-03T16:23:48.587Z,54.51
2018-07-03T16:26:18.502Z,55.35
2018-07-03T16:28:48.315Z,55.38
2018-07-03T16:31:18.223Z,56.30
2018-07-03T16:33:48.074Z,56.27
2018-07-03T16:36:17.935Z,56.18
2018-07-03T16:38:47.832Z,56.86
2018-07-03T16:41:17.708Z,55.89
2018-07-03T16:43:47.609Z,57.18
2018-07-03T16:46:17.505Z,56.18
2018-07-03T16:48:47.349Z,56.99
2018-07-03T16:51:17.162Z,58.39
2018-07-03T16:53:47.080Z,56.90
2018-07-03T16:56:17.032Z,58.59
2018-07-03T16:58:46.899Z,57.82
2018-07-03T17:01:16.781Z,57.68
2018-07-03T17:03:46.680Z,57.83
2018-07-03T17:06:16.537Z,58.74
2018-07-03T17:08:46.500Z,57.05
2018-07-03T17:11:16.495Z,57.98
2018-07-03T17:13:46.446Z,57.21
2018-07-03T17:16:16.211Z,57.90
2018-07-03T17:18:51.184Z,58.27
2018-07-03T17:21:20.961Z,58.06
2018-07-03T17:23:50.743Z,58.91
2018-07-03T17:26:20.526Z,58.11
2018-07-03T17:28:50.388Z,58.96
2018-07-03T17:31:20.239Z,57.75
2018-07-03T17:33:50.221Z,58.54
2018-07-03T17:36:20.096Z,59.02
2018-07-03T17:38:49.930Z,57.90
2018-07-03T17:41:30.456Z,59.38
2018-07-03T17:44:12.575Z,59.15
2018-07-03T17:46:42.552Z,59.41
2018-07-03T17:49:12.480Z,58.39
2018-07-03T17:51:42.405Z,59.12
2018-07-03T17:54:12.377Z,57.88
2018-07-03T17:56:42.216Z,59.43
2018-07-03T17:59:12.046Z,58.24
2018-07-03T18:01:41.996Z,60.66
2018-07-03T18:04:11.939Z,58.92
2018-07-03T18:06:41.849Z,58.13
2018-07-03T18:09:13.027Z,59.18
2018-07-03T18:11:42.967Z,62.77
2018-07-03T18:14:12.862Z,60.52
2018-07-03T18:16:42.728Z,59.39
2018-07-03T18:19:17.579Z,60.33
2018-07-03T18:21:47.368Z,60.40
2018-07-03T18:24:17.370Z,58.36
2018-07-03T18:26:47.191Z,59.17
2018-07-03T18:29:16.995Z,59.78
2018-07-03T18:31:46.775Z,60.27
2018-07-03T18:34:16.716Z,60.28
2018-07-03T18:36:46.559Z,61.12
2018-07-03T18:39:16.440Z,59.91
2018-07-03T18:41:46.321Z,59.62
2018-07-03T18:44:16.231Z,57.60
2018-07-03T18:46:46.131Z,59.38
2018-07-03T18:49:15.960Z,58.86
2018-07-03T18:51:45.900Z,59.15
2018-07-03T18:54:15.788Z,59.90
2018-07-03T18:56:45.660Z,59.69
2018-07-03T18:59:15.527Z,60.09
2018-07-03T19:01:45.400Z,59.95
2018-07-03T19:04:15.273Z,60.69
2018-07-03T19:06:45.101Z,61.20
2018-07-03T19:09:15.032Z,60.03
2018-07-03T19:11:44.964Z,60.36
2018-07-03T19:14:14.923Z,60.43
2018-07-03T19:16:44.862Z,60.36
2018-07-03T19:19:14.773Z,60.00
2018-07-03T19:21:44.673Z,60.35
2018-07-03T19:24:14.804Z,60.48
2018-07-03T19:26:44.635Z,59.99
2018-07-03T19:29:14.571Z,60.47
2018-07-03T19:31:44.626Z,61.46
2018-07-03T19:34:14.501Z,60.92
2018-07-03T19:36:44.356Z,60.55
2018-07-03T19:39:14.773Z,60.56
2018-07-03T19:41:44.592Z,60.91
2018-07-03T19:44:14.442Z,60.96
2018-07-03T19:46:44.282Z,60.69
2018-07-03T19:49:14.159Z,62.01
2018-07-03T19:51:44.004Z,61.32
2018-07-03T19:54:13.943Z,61.08
2018-07-03T19:56:43.909Z,62.50
2018-07-03T19:59:13.744Z,61.82
2018-07-03T20:01:43.656Z,61.36
2018-07-03T20:04:13.534Z,61.40
2018-07-03T20:06:43.487Z,62.45
2018-07-03T20:09:13.869Z,62.08
2018-07-03T20:11:46.702Z,62.65
2018-07-03T20:14:16.527Z,62.10
2018-07-03T20:16:46.537Z,62.19
2018-07-03T20:19:17.016Z,62.70
2018-07-03T20:21:47.519Z,63.38
2018-07-03T20:24:17.535Z,62.88
2018-07-03T20:26:47.346Z,63.61
2018-07-03T20:29:17.224Z,63.82
2018-07-03T20:31:47.059Z,63.89
2018-07-03T20:34:16.900Z,63.14
2018-07-03T20:36:46.716Z,64.04
2018-07-03T20:39:16.528Z,63.14
2018-07-03T20:41:46.380Z,63.24
2018-07-03T20:44:16.337Z,63.16
2018-07-03T20:46:46.179Z,63.73
2018-07-03T20:49:16.029Z,63.75
2018-07-03T20:51:45.900Z,63.71
2018-07-03T20:54:15.696Z,64.12
2018-07-03T20:56:45.518Z,64.11
2018-07-03T20:59:15.353Z,64.66
2018-07-03T21:01:45.256Z,64.63
2018-07-03T21:04:15.263Z,65.30
2018-07-03T21:06:44.885Z,64.71
2018-07-03T21:09:14.763Z,64.69
2018-07-03T21:11:44.757Z,65.77
2018-07-03T21:14:14.607Z,65.56
2018-07-03T21:16:44.508Z,65.56
2018-07-03T21:19:14.414Z,65.75
2018-07-03T21:21:44.255Z,65.21
2018-07-03T21:24:14.047Z,65.10
2018-07-03T21:26:43.846Z,65.07
2018-07-03T21:29:13.680Z,65.09
2018-07-03T21:31:43.607Z,64.89
2018-07-03T21:34:13.547Z,65.12
2018-07-03T21:36:44.184Z,65.20
2018-07-03T21:39:14.100Z,66.29
2018-07-03T21:41:43.903Z,65.30
2018-07-03T21:44:13.731Z,65.96
2018-07-03T21:46:43.688Z,65.41
2018-07-03T21:49:13.547Z,66.25
2018-07-03T21:51:43.532Z,66.54
2018-07-03T21:54:13.375Z,66.21
2018-07-03T21:56:43.164Z,66.21
2018-07-03T21:59:13.667Z,66.26
2018-07-03T22:01:43.571Z,65.82
2018-07-03T22:04:13.501Z,65.60
2018-07-03T22:06:43.292Z,65.81
2018-07-03T22:09:14.099Z,65.51
2018-07-03T22:11:44.231Z,66.59
2018-07-03T22:14:14.108Z,66.68
2018-07-03T22:16:44.051Z,66.18
2018-07-03T22:19:13.955Z,66.61
2018-07-03T22:21:43.989Z,65.93
2018-07-03T22:24:13.830Z,65.68
2018-07-03T22:26:43.612Z,66.27
2018-07-03T22:29:13.533Z,66.79
2018-07-03T22:31:43.338Z,66.55
2018-07-03T22:34:13.147Z,66.72
2018-07-03T22:36:43.000Z,66.30
2018-07-03T22:39:12.963Z,66.96
2018-07-03T22:41:42.793Z,67.32
2018-07-03T22:44:12.697Z,67.30
2018-07-03T22:46:42.735Z,67.21
2018-07-03T22:49:12.527Z,66.88
2018-07-03T22:51:42.326Z,66.29
2018-07-03T22:54:12.276Z,66.40
2018-07-03T22:56:42.115Z,67.29
2018-07-03T22:59:11.960Z,67.44
2018-07-03T23:01:41.747Z,67.35
2018-07-03T23:04:11.640Z,66.66
2018-07-03T23:06:41.440Z,67.37
2018-07-03T23:09:11.267Z,67.12
2018-07-03T23:11:41.078Z,66.88
2018-07-03T23:14:10.868Z,67.26
2018-07-03T23:16:40.726Z,67.39
2018-07-03T23:19:10.982Z,67.78
2018-07-03T23:21:40.782Z,67.94
2018-07-03T23:24:10.568Z,67.57
2018-07-03T23:26:40.496Z,67.58
2018-07-03T23:29:10.300Z,67.51
2018-07-03T23:31:40.208Z,67.52
2018-07-03T23:34:10.151Z,68.33
2018-07-03T23:36:39.982Z,68.28
2018-07-03T23:39:10.732Z,68.34
2018-07-03T23:41:40.573Z,68.32
2018-07-03T23:44:10.415Z,68.37
2018-07-03T23:46:51.081Z,67.42
2018-07-03T23:49:37.727Z,68.26
2018-07-03T23:52:24.440Z,67.47
2018-07-03T23:55:10.872Z,67.43
2018-07-03T23:57:57.454Z,68.21
